Time;durP1;ratioP1;P1;durP2;ratioP2;P2;SDS_P1;SDS_P2;PMS_P1;PMS_P2;Temp;Humidity;BMP_temperature;BMP_pressure;BME280_temperature;BME280_humidity;BME280_pressure;Samples;Min_cycle;Max_cycle;Signal;HPM_P1;HPM_P2
2022/05/31 00:00:24;;;;;;;4.80;3.50;;;;;;;;;;772301;181;624587;-65
2022/05/31 00:02:50;;;;;;;4.10;3.30;;;;;;;;;;769519;181;633149;-64
2022/05/31 00:05:16;;;;;;;4.67;3.67;;;;;;;;;;772125;181;919458;-64
2022/05/31 00:07:42;;;;;;;6.07;4.50;;;;;;;;;;768965;181;937237;-64
2022/05/31 00:10:08;;;;;;;3.90;3.37;;;;;;;;;;769655;178;919455;-65
2022/05/31 00:12:33;;;;;;;5.20;4.20;;;;;;;;;;768859;180;919755;-64
2022/05/31 00:14:59;;;;;;;6.10;4.13;;;;;;;;;;774004;180;928884;-65
2022/05/31 00:17:25;;;;;;;3.70;3.30;;;;;;;;;;769397;177;919061;-64
2022/05/31 00:19:51;;;;;;;6.50;3.30;;;;;;;;;;767406;181;919352;-64
2022/05/31 00:22:18;;;;;;;5.33;3.50;;;;;;;;;;773634;181;919440;-64
2022/05/31 00:24:43;;;;;;;4.77;3.40;;;;;;;;;;766057;180;919134;-64
2022/05/31 00:27:09;;;;;;;6.73;3.40;;;;;;;;;;765632;181;1002433;-64
2022/05/31 00:29:35;;;;;;;4.00;3.27;;;;;;;;;;771433;181;919059;-64
2022/05/31 00:32:01;;;;;;;8.63;3.70;;;;;;;;;;760467;181;918452;-64
2022/05/31 00:34:27;;;;;;;4.47;3.27;;;;;;;;;;769198;181;919442;-64
2022/05/31 00:36:53;;;;;;;4.53;3.03;;;;;;;;;;767550;179;919262;-63
2022/05/31 00:39:18;;;;;;;4.37;3.10;;;;;;;;;;771512;179;918599;-63
2022/05/31 00:41:59;;;;;;;4.43;3.30;;;;;;;;;;768189;181;922785;-64
2022/05/31 00:44:27;;;;;;;4.43;3.37;;;;;;;;;;767438;181;919655;-65
2022/05/31 00:46:52;;;;;;;4.30;3.20;;;;;;;;;;766189;181;919214;-65
2022/05/31 00:49:19;;;;;;;4.17;3.27;;;;;;;;;;771483;181;918708;-66
2022/05/31 00:51:45;;;;;;;5.10;4.03;;;;;;;;;;765144;177;919587;-65
2022/05/31 00:54:11;;;;;;;5.43;4.40;;;;;;;;;;766048;181;919198;-66
2022/05/31 00:56:37;;;;;;;5.60;4.60;;;;;;;;;;771115;181;918995;-65
2022/05/31 00:59:03;;;;;;;7.47;4.30;;;;;;;;;;763372;181;919442;-65
2022/05/31 01:01:28;;;;;;;5.83;4.87;;;;;;;;;;768368;180;919772;-65
2022/05/31 01:03:54;;;;;;;5.13;4.47;;;;;;;;;;766845;181;925617;-65
2022/05/31 01:06:20;;;;;;;5.87;4.80;;;;;;;;;;766812;181;921557;-65
2022/05/31 01:08:46;;;;;;;4.10;3.27;;;;;;;;;;772064;179;919477;-66
2022/05/31 01:11:13;;;;;;;7.83;4.00;;;;;;;;;;766367;179;919789;-65
2022/05/31 01:13:38;;;;;;;7.10;3.73;;;;;;;;;;771812;179;922931;-65
2022/05/31 01:16:04;;;;;;;6.90;3.70;;;;;;;;;;764353;179;918828;-65
2022/05/31 01:18:30;;;;;;;4.80;3.95;;;;;;;;;;764391;179;918788;-65
2022/05/31 01:20:56;;;;;;;4.43;3.57;;;;;;;;;;773303;179;915701;-65
2022/05/31 01:23:22;;;;;;;4.50;3.90;;;;;;;;;;770469;177;926451;-65
2022/05/31 01:25:50;;;;;;;4.23;3.60;;;;;;;;;;769137;180;919960;-65
2022/05/31 01:28:33;;;;;;;4.70;4.20;;;;;;;;;;765809;179;919182;-64
2022/05/31 01:31:01;;;;;;;4.67;3.37;;;;;;;;;;757178;181;931499;-65
2022/05/31 01:33:28;;;;;;;3.97;3.37;;;;;;;;;;772798;181;919737;-65
2022/05/31 01:35:54;;;;;;;6.33;3.63;;;;;;;;;;767573;179;919470;-65
2022/05/31 01:38:20;;;;;;;4.60;3.47;;;;;;;;;;766862;181;919505;-65
2022/05/31 01:41:03;;;;;;;4.25;3.47;;;;;;;;;;771155;181;918807;-65
2022/05/31 01:43:29;;;;;;;5.53;4.07;;;;;;;;;;767055;180;919602;-65
2022/05/31 01:45:55;;;;;;;4.20;3.40;;;;;;;;;;768543;181;919575;-65
2022/05/31 01:48:22;;;;;;;4.60;3.97;;;;;;;;;;766815;179;919225;-64
2022/05/31 01:50:48;;;;;;;9.43;4.12;;;;;;;;;;767709;181;1021382;-65
2022/05/31 01:53:14;;;;;;;4.30;3.70;;;;;;;;;;766815;182;919615;-65
2022/05/31 01:55:41;;;;;;;6.57;4.70;;;;;;;;;;768726;181;919764;-65
2022/05/31 01:58:05;;;;;;;6.90;4.63;;;;;;;;;;767573;181;919191;-65
2022/05/31 02:00:31;;;;;;;6.03;4.50;;;;;;;;;;771596;181;919160;-65
2022/05/31 02:02:57;;;;;;;5.85;4.93;;;;;;;;;;764844;179;919485;-65
2022/05/31 02:05:23;;;;;;;6.30;4.27;;;;;;;;;;764727;181;919417;-65
2022/05/31 02:07:51;;;;;;;4.33;3.90;;;;;;;;;;770369;181;919002;-65
2022/05/31 02:10:17;;;;;;;5.50;4.30;;;;;;;;;;768370;181;917920;-65
2022/05/31 02:12:43;;;;;;;4.70;4.20;;;;;;;;;;767559;179;920030;-65
2022/05/31 02:15:09;;;;;;;5.37;4.00;;;;;;;;;;765974;180;922118;-65
2022/05/31 02:17:35;;;;;;;4.50;3.80;;;;;;;;;;765626;181;919073;-65
2022/05/31 02:20:01;;;;;;;5.53;4.13;;;;;;;;;;767267;179;919075;-64
2022/05/31 02:22:30;;;;;;;5.03;4.30;;;;;;;;;;764594;179;918581;-64
2022/05/31 02:24:53;;;;;;;5.33;4.27;;;;;;;;;;772666;181;919793;-64
2022/05/31 02:27:19;;;;;;;5.63;3.93;;;;;;;;;;767707;181;919288;-65
2022/05/31 02:29:45;;;;;;;5.30;4.60;;;;;;;;;;768283;181;919453;-65
2022/05/31 02:32:12;;;;;;;4.50;4.07;;;;;;;;;;772857;181;914018;-65
2022/05/31 02:34:39;;;;;;;5.23;4.30;;;;;;;;;;769527;180;1021450;-64
2022/05/31 02:37:05;;;;;;;10.15;4.35;;;;;;;;;;770060;177;919307;-64
2022/05/31 02:39:30;;;;;;;7.67;4.30;;;;;;;;;;767668;180;919393;-63
2022/05/31 02:41:56;;;;;;;4.90;3.87;;;;;;;;;;771464;178;919101;-64
2022/05/31 02:44:23;;;;;;;4.63;4.07;;;;;;;;;;767887;181;916791;-64
2022/05/31 02:46:48;;;;;;;6.60;4.40;;;;;;;;;;766526;178;915965;-64
2022/05/31 02:49:14;;;;;;;7.00;4.65;;;;;;;;;;773485;181;919405;-63
2022/05/31 02:51:40;;;;;;;5.10;4.60;;;;;;;;;;768425;181;916436;-64
2022/05/31 02:54:05;;;;;;;7.20;5.20;;;;;;;;;;767793;180;919370;-64
2022/05/31 02:56:32;;;;;;;6.80;5.72;;;;;;;;;;773694;181;929882;-64
2022/05/31 02:58:57;;;;;;;7.13;5.87;;;;;;;;;;767820;177;895286;-63
2022/05/31 03:01:23;;;;;;;6.97;5.10;;;;;;;;;;769876;179;918223;-62
2022/05/31 03:03:49;;;;;;;9.17;6.53;;;;;;;;;;766341;181;1021194;-63
2022/05/31 03:06:15;;;;;;;10.93;7.07;;;;;;;;;;756665;184;918802;-64
2022/05/31 03:08:41;;;;;;;8.17;6.60;;;;;;;;;;767779;177;919598;-64
2022/05/31 03:11:06;;;;;;;10.53;7.23;;;;;;;;;;766614;181;919870;-63
2022/05/31 03:13:32;;;;;;;9.87;8.00;;;;;;;;;;774187;181;917703;-64
2022/05/31 03:15:58;;;;;;;11.80;8.40;;;;;;;;;;765041;181;919031;-64
2022/05/31 03:18:24;;;;;;;11.13;7.90;;;;;;;;;;767165;181;920205;-64
2022/05/31 03:20:50;;;;;;;10.13;8.90;;;;;;;;;;771073;181;918933;-64
2022/05/31 03:23:19;;;;;;;12.87;9.77;;;;;;;;;;765589;179;920124;-64
2022/05/31 03:25:45;;;;;;;16.13;10.70;;;;;;;;;;770331;181;623818;-64
2022/05/31 03:28:11;;;;;;;17.53;12.07;;;;;;;;;;769780;181;658428;-64
2022/05/31 03:30:37;;;;;;;17.57;12.30;;;;;;;;;;775546;180;627171;-64
2022/05/31 03:33:03;;;;;;;22.50;12.60;;;;;;;;;;771308;179;634562;-64
2022/05/31 03:35:29;;;;;;;15.83;13.40;;;;;;;;;;771995;181;640430;-64
2022/05/31 03:37:54;;;;;;;25.73;12.40;;;;;;;;;;774681;178;616184;-64
2022/05/31 03:42:52;;;;;;;16.67;13.33;;;;;;;;;;768268;181;919243;-65
2022/05/31 03:45:18;;;;;;;17.77;14.53;;;;;;;;;;769868;180;919373;-63
2022/05/31 03:47:44;;;;;;;16.25;12.43;;;;;;;;;;775152;178;918592;-64
2022/05/31 03:50:09;;;;;;;14.07;11.40;;;;;;;;;;765997;179;919723;-64
2022/05/31 03:52:35;;;;;;;20.03;16.10;;;;;;;;;;768005;180;918859;-64
2022/05/31 03:55:01;;;;;;;20.43;16.57;;;;;;;;;;771368;181;919638;-64
2022/05/31 03:57:27;;;;;;;16.60;13.70;;;;;;;;;;767306;181;920533;-64
2022/05/31 03:59:53;;;;;;;24.93;14.17;;;;;;;;;;767298;181;920239;-63
2022/05/31 04:02:19;;;;;;;18.27;14.77;;;;;;;;;;772163;180;919548;-64
2022/05/31 04:04:44;;;;;;;16.83;14.30;;;;;;;;;;768598;181;919345;-63
2022/05/31 04:07:10;;;;;;;17.63;14.00;;;;;;;;;;767047;179;970712;-64
2022/05/31 04:09:36;;;;;;;19.00;14.37;;;;;;;;;;770458;181;678394;-65
2022/05/31 04:12:02;;;;;;;14.67;13.17;;;;;;;;;;764477;182;625108;-63
2022/05/31 04:14:28;;;;;;;17.07;13.07;;;;;;;;;;772829;179;614463;-63
2022/05/31 04:16:54;;;;;;;16.30;12.60;;;;;;;;;;771693;181;639191;-65
2022/05/31 04:19:20;;;;;;;19.10;12.83;;;;;;;;;;775913;179;637228;-63
2022/05/31 04:21:46;;;;;;;15.30;12.20;;;;;;;;;;772833;181;618513;-64
2022/05/31 04:24:12;;;;;;;15.13;12.40;;;;;;;;;;771384;181;632177;-64
2022/05/31 04:26:38;;;;;;;16.57;12.10;;;;;;;;;;775419;181;628986;-64
2022/05/31 04:29:03;;;;;;;17.03;11.07;;;;;;;;;;771455;179;921266;-63
2022/05/31 04:31:29;;;;;;;13.63;10.67;;;;;;;;;;766507;181;920033;-63
2022/05/31 04:33:56;;;;;;;12.50;9.80;;;;;;;;;;771456;181;1013529;-63
2022/05/31 04:36:22;;;;;;;14.60;10.50;;;;;;;;;;762309;183;917238;-65
2022/05/31 04:38:48;;;;;;;16.00;10.50;;;;;;;;;;770300;181;920504;-64
2022/05/31 04:41:19;;;;;;;12.33;10.50;;;;;;;;;;771856;181;625955;-64
2022/05/31 04:43:45;;;;;;;15.43;10.53;;;;;;;;;;772126;180;929270;-64
2022/05/31 04:46:12;;;;;;;12.60;10.30;;;;;;;;;;768079;181;919044;-64
2022/05/31 04:48:38;;;;;;;14.67;10.57;;;;;;;;;;767439;179;918695;-64
2022/05/31 04:51:04;;;;;;;14.18;10.60;;;;;;;;;;767333;181;919759;-66
2022/05/31 04:53:30;;;;;;;17.33;11.03;;;;;;;;;;769434;181;620016;-64
2022/05/31 04:56:02;;;;;;;13.87;10.40;;;;;;;;;;771202;178;919205;-64
2022/05/31 04:58:28;;;;;;;16.90;10.47;;;;;;;;;;773763;178;626954;-64
2022/05/31 05:00:53;;;;;;;15.50;10.57;;;;;;;;;;772960;180;921804;-65
2022/05/31 05:03:19;;;;;;;10.93;8.60;;;;;;;;;;764492;179;912549;-64
2022/05/31 05:05:45;;;;;;;10.60;8.10;;;;;;;;;;768847;178;912430;-66
2022/05/31 05:08:11;;;;;;;10.63;8.27;;;;;;;;;;772453;181;637530;-66
2022/05/31 05:10:37;;;;;;;10.80;8.37;;;;;;;;;;770960;180;616574;-65
2022/05/31 05:13:02;;;;;;;9.10;7.30;;;;;;;;;;772245;180;911998;-66
2022/05/31 05:15:28;;;;;;;10.07;8.40;;;;;;;;;;766324;181;914639;-65
2022/05/31 05:17:54;;;;;;;9.17;7.60;;;;;;;;;;771289;181;914946;-65
2022/05/31 05:20:22;;;;;;;10.43;8.33;;;;;;;;;;765383;179;914687;-64
2022/05/31 05:22:46;;;;;;;10.90;7.47;;;;;;;;;;766025;181;915710;-65
2022/05/31 05:25:12;;;;;;;9.60;7.67;;;;;;;;;;774047;181;960534;-65
2022/05/31 05:27:38;;;;;;;8.60;6.77;;;;;;;;;;768204;179;922011;-66
2022/05/31 05:32:35;;;;;;;7.87;6.60;;;;;;;;;;769912;179;848830;-66
2022/05/31 05:35:01;;;;;;;9.33;6.40;;;;;;;;;;773999;181;879274;-65
2022/05/31 05:37:27;;;;;;;9.70;6.90;;;;;;;;;;768664;178;913801;-65
2022/05/31 05:39:53;;;;;;;8.93;6.13;;;;;;;;;;766611;181;915709;-65
2022/05/31 05:42:18;;;;;;;8.47;6.60;;;;;;;;;;770730;179;921028;-66
2022/05/31 05:44:44;;;;;;;7.40;6.07;;;;;;;;;;766010;180;914131;-66
2022/05/31 05:47:14;;;;;;;8.70;6.80;;;;;;;;;;765122;179;921197;-67
2022/05/31 05:49:36;;;;;;;8.30;6.22;;;;;;;;;;771354;181;920762;-67
2022/05/31 05:52:02;;;;;;;8.93;6.33;;;;;;;;;;767248;179;916224;-66
2022/05/31 05:54:28;;;;;;;8.68;6.80;;;;;;;;;;768778;181;908085;-67
2022/05/31 05:56:54;;;;;;;7.53;5.70;;;;;;;;;;766760;179;914771;-66
2022/05/31 05:59:20;;;;;;;13.70;6.60;;;;;;;;;;766895;179;916436;-66
2022/05/31 06:01:48;;;;;;;7.15;6.20;;;;;;;;;;768980;181;946309;-67
2022/05/31 06:04:14;;;;;;;8.80;6.23;;;;;;;;;;767275;181;927984;-68
2022/05/31 06:06:40;;;;;;;8.03;6.00;;;;;;;;;;771374;178;919241;-69
2022/05/31 06:09:08;;;;;;;7.90;6.03;;;;;;;;;;770283;178;919318;-68
2022/05/31 06:11:32;;;;;;;6.83;5.17;;;;;;;;;;765976;180;1021708;-67
2022/05/31 06:13:59;;;;;;;8.67;5.90;;;;;;;;;;772807;178;919418;-69
2022/05/31 06:16:26;;;;;;;7.40;5.20;;;;;;;;;;766921;180;918911;-68
2022/05/31 06:18:50;;;;;;;6.63;5.40;;;;;;;;;;769547;181;918974;-69
2022/05/31 06:21:16;;;;;;;7.28;5.45;;;;;;;;;;768074;181;919042;-68
2022/05/31 06:23:42;;;;;;;6.97;5.40;;;;;;;;;;773117;181;919402;-68
2022/05/31 06:26:08;;;;;;;9.23;5.03;;;;;;;;;;768366;178;920017;-68
2022/05/31 06:28:34;;;;;;;8.90;7.20;;;;;;;;;;768699;181;918529;-69
2022/05/31 06:31:00;;;;;;;8.13;5.70;;;;;;;;;;767827;179;918785;-69
2022/05/31 06:33:27;;;;;;;11.10;6.35;;;;;;;;;;766960;179;919028;-70
2022/05/31 06:35:53;;;;;;;8.33;5.40;;;;;;;;;;766643;181;919451;-68
2022/05/31 06:38:19;;;;;;;11.93;5.60;;;;;;;;;;769347;179;1124326;-69
2022/05/31 06:40:45;;;;;;;16.43;6.70;;;;;;;;;;769401;181;918355;-70
2022/05/31 06:43:10;;;;;;;6.20;4.30;;;;;;;;;;767765;181;919518;-69
2022/05/31 06:45:36;;;;;;;4.53;4.13;;;;;;;;;;764940;181;919122;-69
2022/05/31 06:48:03;;;;;;;5.60;4.50;;;;;;;;;;773380;179;919203;-70
2022/05/31 06:50:30;;;;;;;8.23;3.90;;;;;;;;;;767339;181;919066;-69
2022/05/31 06:57:58;;;;;;;7.50;5.07;;;;;;;;;;764530;181;918680;-70
2022/05/31 07:00:24;;;;;;;6.87;3.97;;;;;;;;;;763301;181;926043;-71
2022/05/31 07:02:50;;;;;;;6.07;4.40;;;;;;;;;;766514;181;918688;-71
2022/05/31 07:05:16;;;;;;;7.10;4.77;;;;;;;;;;773216;179;923499;-70
2022/05/31 07:07:41;;;;;;;4.10;3.40;;;;;;;;;;765740;179;1021315;-71
2022/05/31 07:10:07;;;;;;;6.00;3.37;;;;;;;;;;771059;181;919529;-72
2022/05/31 07:12:33;;;;;;;4.97;4.23;;;;;;;;;;774469;179;624739;-72
2022/05/31 07:14:59;;;;;;;4.73;3.77;;;;;;;;;;769564;181;918014;-69
2022/05/31 07:17:25;;;;;;;4.90;3.47;;;;;;;;;;764122;181;919436;-71
2022/05/31 07:19:51;;;;;;;4.80;3.07;;;;;;;;;;768181;180;918981;-71
2022/05/31 07:22:17;;;;;;;3.80;3.00;;;;;;;;;;775319;178;919256;-71
2022/05/31 07:24:42;;;;;;;4.10;3.20;;;;;;;;;;769054;181;920318;-72
2022/05/31 07:27:08;;;;;;;5.47;3.10;;;;;;;;;;768105;181;919780;-72
2022/05/31 07:29:34;;;;;;;5.10;3.50;;;;;;;;;;773348;180;894857;-73
2022/05/31 07:32:00;;;;;;;4.63;3.17;;;;;;;;;;770012;179;919329;-73
2022/05/31 07:34:26;;;;;;;6.00;3.40;;;;;;;;;;768924;181;919275;-73
2022/05/31 07:36:53;;;;;;;4.13;2.90;;;;;;;;;;773495;181;627208;-72
2022/05/31 07:39:19;;;;;;;6.53;2.83;;;;;;;;;;767850;181;919123;-73
2022/05/31 07:41:46;;;;;;;3.33;2.62;;;;;;;;;;766048;179;939290;-72
2022/05/31 07:44:11;;;;;;;4.00;2.67;;;;;;;;;;764585;181;1143652;-75
2022/05/31 07:46:37;;;;;;;3.77;2.20;;;;;;;;;;774181;181;920006;-73
2022/05/31 07:49:03;;;;;;;3.30;2.37;;;;;;;;;;768148;181;918928;-75
2022/05/31 07:51:29;;;;;;;5.27;2.53;;;;;;;;;;767344;181;918845;-73
2022/05/31 07:53:55;;;;;;;8.13;2.63;;;;;;;;;;773561;180;1021929;-72
2022/05/31 07:56:20;;;;;;;3.53;2.17;;;;;;;;;;769420;179;919366;-74
2022/05/31 07:58:46;;;;;;;6.10;2.53;;;;;;;;;;766102;181;918684;-74
2022/05/31 08:01:13;;;;;;;4.50;2.43;;;;;;;;;;771230;181;919601;-74
2022/05/31 08:03:39;;;;;;;4.00;2.50;;;;;;;;;;765616;179;918949;-77
2022/05/31 08:06:06;;;;;;;4.50;2.57;;;;;;;;;;767499;179;919031;-76
2022/05/31 08:08:31;;;;;;;3.87;2.10;;;;;;;;;;766499;179;918202;-76
2022/05/31 08:10:56;;;;;;;2.80;1.97;;;;;;;;;;762820;179;907652;-76
2022/05/31 08:13:22;;;;;;;3.17;2.20;;;;;;;;;;769447;179;713804;-75
2022/05/31 08:15:48;;;;;;;4.80;2.33;;;;;;;;;;767956;179;918560;-76
2022/05/31 08:21:07;;;;;;;8.00;2.63;;;;;;;;;;714433;181;741304;-87
2022/05/31 08:23:33;;;;;;;3.50;2.30;;;;;;;;;;760650;182;626071;-84
2022/05/31 08:25:58;;;;;;;8.53;2.27;;;;;;;;;;770636;181;623580;-89
2022/05/31 08:28:24;;;;;;;4.33;2.83;;;;;;;;;;764950;182;714143;-86
2022/05/31 08:30:50;;;;;;;3.57;2.37;;;;;;;;;;772519;180;635315;-86
2022/05/31 08:33:16;;;;;;;3.10;2.13;;;;;;;;;;772165;180;742343;-86
2022/05/31 08:35:42;;;;;;;2.90;2.00;;;;;;;;;;769465;180;631964;-86
2022/05/31 08:38:08;;;;;;;6.70;2.30;;;;;;;;;;772810;181;666302;-86
2022/05/31 08:40:33;;;;;;;4.80;2.20;;;;;;;;;;768544;181;683521;-86
2022/05/31 08:42:59;;;;;;;3.23;2.33;;;;;;;;;;772687;180;666012;-84
2022/05/31 08:45:31;;;;;;;6.63;2.10;;;;;;;;;;774035;180;795287;-85
2022/05/31 08:48:09;;;;;;;9.00;2.00;;;;;;;;;;781235;176;613368;-83
2022/05/31 08:53:19;;;;;;;3.60;2.40;;;;;;;;;;769530;178;665921;-89
2022/05/31 08:58:22;;;;;;;4.70;2.70;;;;;;;;;;764103;181;670698;-85
2022/05/31 09:00:48;;;;;;;5.00;2.70;;;;;;;;;;763225;183;710091;-87
2022/05/31 09:03:16;;;;;;;3.20;2.23;;;;;;;;;;774075;181;675712;-86
2022/05/31 09:05:43;;;;;;;3.13;2.47;;;;;;;;;;765928;181;675569;-85
2022/05/31 09:08:09;;;;;;;5.63;3.17;;;;;;;;;;764555;182;714477;-88
2022/05/31 09:10:36;;;;;;;3.60;2.30;;;;;;;;;;770284;182;779270;-86
2022/05/31 09:13:03;;;;;;;3.40;2.50;;;;;;;;;;765390;181;714310;-86
2022/05/31 09:15:32;;;;;;;4.50;2.60;;;;;;;;;;766537;181;642694;-84
2022/05/31 09:17:58;;;;;;;3.93;1.93;;;;;;;;;;764966;181;630671;-85
2022/05/31 09:20:28;;;;;;;3.20;1.93;;;;;;;;;;769736;181;638590;-86
2022/05/31 09:22:54;;;;;;;5.07;2.50;;;;;;;;;;765724;182;640640;-89
2022/05/31 09:25:19;;;;;;;5.37;2.57;;;;;;;;;;767281;182;634683;-87
2022/05/31 09:27:45;;;;;;;7.30;3.07;;;;;;;;;;770036;182;634844;-86
2022/05/31 09:30:12;;;;;;;4.23;2.27;;;;;;;;;;772242;181;714150;-85
2022/05/31 09:32:40;;;;;;;7.87;3.00;;;;;;;;;;761197;181;711247;-87
2022/05/31 09:35:10;;;;;;;8.57;3.43;;;;;;;;;;769572;181;644004;-87
2022/05/31 09:37:36;;;;;;;3.03;2.00;;;;;;;;;;770617;182;648621;-85
2022/05/31 09:40:21;;;;;;;3.03;2.07;;;;;;;;;;761162;182;811619;-86
2022/05/31 09:42:53;;;;;;;7.20;2.20;;;;;;;;;;769963;180;756255;-85
2022/05/31 09:45:19;;;;;;;3.93;2.30;;;;;;;;;;768400;180;712161;-89
2022/05/31 09:47:45;;;;;;;5.20;2.10;;;;;;;;;;773599;181;660144;-86
2022/05/31 09:50:11;;;;;;;3.20;2.07;;;;;;;;;;772848;180;625384;-85
2022/05/31 09:52:37;;;;;;;9.10;3.83;;;;;;;;;;768537;181;656374;-88
2022/05/31 10:00:49;;;;;;;19.30;4.83;;;;;;;;;;706023;180;917806;-76
2022/05/31 10:03:15;;;;;;;8.05;2.53;;;;;;;;;;742834;187;918978;-76
2022/05/31 10:05:41;;;;;;;5.77;2.47;;;;;;;;;;730917;187;919789;-78
2022/05/31 10:08:12;;;;;;;4.30;2.00;;;;;;;;;;736786;185;1021365;-78
2022/05/31 10:10:38;;;;;;;4.97;3.23;;;;;;;;;;729949;189;918169;-77
2022/05/31 10:13:04;;;;;;;2.50;1.77;;;;;;;;;;725792;190;918771;-76
2022/05/31 10:15:30;;;;;;;2.90;1.50;;;;;;;;;;730968;190;918822;-75
2022/05/31 10:18:00;;;;;;;2.80;1.87;;;;;;;;;;729839;189;765903;-76
2022/05/31 10:20:25;;;;;;;2.50;1.50;;;;;;;;;;729664;188;918316;-72
2022/05/31 10:22:53;;;;;;;10.20;2.37;;;;;;;;;;727718;191;920239;-75
2022/05/31 10:25:19;;;;;;;4.03;1.80;;;;;;;;;;734992;188;918853;-77
2022/05/31 10:27:45;;;;;;;3.90;1.97;;;;;;;;;;730692;189;918195;-77
2022/05/31 10:30:11;;;;;;;2.20;1.50;;;;;;;;;;726700;189;815013;-79
2022/05/31 10:32:50;;;;;;;3.17;1.50;;;;;;;;;;730795;189;836645;-80
2022/05/31 10:35:15;;;;;;;2.50;1.80;;;;;;;;;;735775;190;815971;-80
2022/05/31 10:37:48;;;;;;;4.80;1.63;;;;;;;;;;728419;189;919450;-79
2022/05/31 10:40:15;;;;;;;3.95;1.85;;;;;;;;;;725761;191;1045026;-75
2022/05/31 10:42:41;;;;;;;2.97;1.58;;;;;;;;;;729976;189;1036532;-78
2022/05/31 10:45:07;;;;;;;2.30;1.40;;;;;;;;;;731970;189;918811;-73
2022/05/31 10:47:33;;;;;;;4.10;1.83;;;;;;;;;;725846;189;919371;-76
2022/05/31 10:50:00;;;;;;;5.20;1.67;;;;;;;;;;729559;191;918861;-76
2022/05/31 10:52:41;;;;;;;3.90;2.00;;;;;;;;;;730696;189;919134;-75
2022/05/31 10:55:11;;;;;;;11.33;1.57;;;;;;;;;;737700;188;918515;-75
2022/05/31 10:57:40;;;;;;;3.00;1.40;;;;;;;;;;725356;190;919045;-76
2022/05/31 11:00:08;;;;;;;4.95;1.98;;;;;;;;;;728553;189;914189;-80
2022/05/31 11:02:34;;;;;;;2.30;1.40;;;;;;;;;;730237;189;919210;-74
2022/05/31 11:05:01;;;;;;;10.50;3.40;;;;;;;;;;736814;189;919148;-73
2022/05/31 11:07:33;;;;;;;5.10;1.97;;;;;;;;;;730991;190;918579;-72
2022/05/31 11:12:42;;;;;;;5.70;1.80;;;;;;;;;;727516;190;919479;-74
2022/05/31 11:15:13;;;;;;;9.20;2.03;;;;;;;;;;726478;189;906275;-76
2022/05/31 11:17:54;;;;;;;10.80;1.80;;;;;;;;;;742280;186;628300;-76
2022/05/31 11:20:20;;;;;;;3.10;1.67;;;;;;;;;;739388;189;713084;-77
2022/05/31 11:22:50;;;;;;;2.70;1.57;;;;;;;;;;727916;189;915163;-80
2022/05/31 11:25:22;;;;;;;2.63;1.30;;;;;;;;;;726851;189;819625;-78
2022/05/31 11:28:05;;;;;;;3.93;1.60;;;;;;;;;;726597;190;916143;-76
2022/05/31 11:30:33;;;;;;;4.32;1.58;;;;;;;;;;726604;189;915848;-76
2022/05/31 11:33:03;;;;;;;3.47;2.07;;;;;;;;;;734816;189;627979;-81
2022/05/31 11:35:45;;;;;;;2.60;1.60;;;;;;;;;;729546;189;916818;-78
2022/05/31 11:38:10;;;;;;;2.70;1.53;;;;;;;;;;730254;191;813830;-78
2022/05/31 11:40:44;;;;;;;3.63;1.60;;;;;;;;;;727583;188;915964;-76
2022/05/31 11:43:15;;;;;;;2.30;1.63;;;;;;;;;;728910;189;915449;-76
2022/05/31 11:45:56;;;;;;;2.93;1.57;;;;;;;;;;729717;189;1016683;-77
2022/05/31 11:48:25;;;;;;;2.90;1.63;;;;;;;;;;736834;191;911528;-75
2022/05/31 11:51:03;;;;;;;3.23;1.67;;;;;;;;;;725815;191;816371;-74
2022/05/31 11:53:46;;;;;;;4.80;2.00;;;;;;;;;;725614;191;919075;-77
2022/05/31 11:56:18;;;;;;;3.40;1.40;;;;;;;;;;725685;191;918977;-77
2022/05/31 11:58:45;;;;;;;3.43;1.70;;;;;;;;;;730388;189;910259;-80
2022/05/31 12:01:12;;;;;;;7.40;2.20;;;;;;;;;;726812;189;919451;-78
2022/05/31 12:03:53;;;;;;;2.67;1.47;;;;;;;;;;730158;189;909242;-76
2022/05/31 12:06:25;;;;;;;2.50;1.50;;;;;;;;;;734782;189;917944;-77
2022/05/31 12:08:51;;;;;;;5.10;2.10;;;;;;;;;;731229;190;928942;-78
2022/05/31 12:11:21;;;;;;;2.50;1.80;;;;;;;;;;729349;189;911704;-78
2022/05/31 12:13:47;;;;;;;3.20;2.00;;;;;;;;;;724869;189;919268;-75
2022/05/31 12:16:13;;;;;;;2.93;1.60;;;;;;;;;;735147;187;891985;-70
2022/05/31 12:18:41;;;;;;;4.37;1.90;;;;;;;;;;728625;190;919132;-75
2022/05/31 12:21:10;;;;;;;2.80;1.60;;;;;;;;;;726990;190;923108;-76
2022/05/31 12:23:36;;;;;;;3.50;1.77;;;;;;;;;;729038;191;919180;-77
2022/05/31 12:26:02;;;;;;;4.43;1.50;;;;;;;;;;739996;186;920457;-73
2022/05/31 12:28:32;;;;;;;7.60;1.90;;;;;;;;;;728635;190;918830;-76
2022/05/31 12:31:00;;;;;;;3.10;1.60;;;;;;;;;;727569;191;908400;-77
2022/05/31 12:33:33;;;;;;;3.80;1.80;;;;;;;;;;727202;190;919356;-75
2022/05/31 12:35:55;;;;;;;11.43;3.40;;;;;;;;;;727939;190;919405;-76
2022/05/31 12:38:21;;;;;;;3.60;1.77;;;;;;;;;;722835;190;917425;-79
2022/05/31 12:40:47;;;;;;;3.23;1.70;;;;;;;;;;726535;187;916128;-74
2022/05/31 12:43:14;;;;;;;3.43;1.70;;;;;;;;;;734073;191;920511;-76
2022/05/31 12:45:39;;;;;;;4.37;1.70;;;;;;;;;;727286;191;968268;-76
2022/05/31 12:48:11;;;;;;;3.53;2.00;;;;;;;;;;729652;191;817903;-80
2022/05/31 12:50:43;;;;;;;5.67;1.70;;;;;;;;;;731633;190;919170;-77
2022/05/31 12:53:18;;;;;;;3.60;2.03;;;;;;;;;;731940;189;714973;-81
2022/05/31 12:55:53;;;;;;;7.43;1.73;;;;;;;;;;728143;189;816111;-78
2022/05/31 12:58:35;;;;;;;2.20;1.33;;;;;;;;;;730289;189;816946;-76
2022/05/31 13:01:00;;;;;;;4.93;1.70;;;;;;;;;;728285;190;918531;-75
2022/05/31 13:03:46;;;;;;;2.25;1.30;;;;;;;;;;722978;189;918888;-75
2022/05/31 13:06:30;;;;;;;2.83;1.80;;;;;;;;;;731594;190;811154;-74
2022/05/31 13:09:00;;;;;;;3.27;2.23;;;;;;;;;;730112;189;916472;-75
2022/05/31 13:19:41;;;;;;;4.00;1.60;;;;;;;;;;728723;190;914948;-78
2022/05/31 13:22:05;;;;;;;3.67;1.40;;;;;;;;;;733281;190;915226;-79
2022/05/31 13:24:31;;;;;;;3.45;1.55;;;;;;;;;;728101;189;918896;-75
2022/05/31 13:26:56;;;;;;;3.80;1.80;;;;;;;;;;729572;189;1018376;-77
2022/05/31 13:29:23;;;;;;;4.63;1.40;;;;;;;;;;732901;190;913572;-75
2022/05/31 13:31:50;;;;;;;10.03;1.30;;;;;;;;;;731523;190;918914;-75
2022/05/31 13:34:16;;;;;;;2.97;1.53;;;;;;;;;;729075;189;826011;-76
2022/05/31 13:36:42;;;;;;;3.23;1.50;;;;;;;;;;727386;190;917771;-75
2022/05/31 13:39:08;;;;;;;3.43;1.60;;;;;;;;;;733920;190;816537;-78
2022/05/31 13:41:33;;;;;;;3.83;1.40;;;;;;;;;;728544;189;892496;-77
2022/05/31 13:44:00;;;;;;;3.27;2.07;;;;;;;;;;727424;188;878990;-74
2022/05/31 13:46:26;;;;;;;2.70;1.53;;;;;;;;;;728955;188;918234;-77
2022/05/31 13:48:52;;;;;;;3.53;1.90;;;;;;;;;;729762;189;1019536;-75
2022/05/31 13:51:21;;;;;;;5.23;1.70;;;;;;;;;;734545;189;822370;-81
2022/05/31 13:53:47;;;;;;;6.10;1.80;;;;;;;;;;731732;189;817138;-76
2022/05/31 13:56:14;;;;;;;4.00;2.00;;;;;;;;;;737821;189;627000;-74
2022/05/31 13:58:38;;;;;;;5.03;1.60;;;;;;;;;;731640;191;638219;-75
2022/05/31 14:01:05;;;;;;;4.03;2.00;;;;;;;;;;728175;189;627819;-75
2022/05/31 14:03:32;;;;;;;2.30;1.30;;;;;;;;;;733546;191;623341;-77
2022/05/31 14:06:00;;;;;;;3.50;1.60;;;;;;;;;;730419;190;815809;-75
2022/05/31 14:08:35;;;;;;;3.00;1.73;;;;;;;;;;729014;189;629103;-75
2022/05/31 14:11:01;;;;;;;8.20;7.20;;;;;;;;;;732023;189;631672;-76
2022/05/31 14:13:26;;;;;;;2.57;1.70;;;;;;;;;;732552;190;917058;-74
2022/05/31 14:15:58;;;;;;;3.60;1.47;;;;;;;;;;723728;191;627342;-73
2022/05/31 14:18:24;;;;;;;4.73;1.90;;;;;;;;;;729552;189;626116;-75
2022/05/31 14:20:50;;;;;;;3.67;2.00;;;;;;;;;;728010;191;918684;-76
2022/05/31 14:23:17;;;;;;;4.63;2.30;;;;;;;;;;732516;191;784633;-75
2022/05/31 14:25:45;;;;;;;8.00;1.80;;;;;;;;;;728521;190;810334;-77
2022/05/31 14:28:16;;;;;;;5.03;2.53;;;;;;;;;;730723;189;617878;-74
2022/05/31 14:30:46;;;;;;;3.80;1.57;;;;;;;;;;735001;190;770858;-77
2022/05/31 14:33:12;;;;;;;6.27;1.77;;;;;;;;;;735856;190;637990;-74
2022/05/31 14:35:41;;;;;;;2.90;1.63;;;;;;;;;;730505;190;628830;-72
2022/05/31 14:38:06;;;;;;;5.57;2.20;;;;;;;;;;726035;190;644887;-76
2022/05/31 14:40:33;;;;;;;4.00;1.73;;;;;;;;;;731442;191;648039;-74
2022/05/31 14:43:04;;;;;;;9.30;1.40;;;;;;;;;;728969;190;793389;-78
2022/05/31 14:45:30;;;;;;;2.97;1.70;;;;;;;;;;731233;190;627526;-74
2022/05/31 14:47:56;;;;;;;3.20;1.90;;;;;;;;;;730993;189;725166;-75
2022/05/31 14:50:24;;;;;;;4.47;1.73;;;;;;;;;;736234;190;688074;-73
2022/05/31 14:52:49;;;;;;;3.83;1.77;;;;;;;;;;728844;190;626530;-74
2022/05/31 14:55:30;;;;;;;2.53;1.40;;;;;;;;;;730683;190;636730;-72
2022/05/31 15:00:35;;;;;;;2.20;1.20;;;;;;;;;;735811;187;629219;-71
2022/05/31 15:03:01;;;;;;;2.60;1.67;;;;;;;;;;731860;191;627287;-72